Airfield :
LOGIN :

Register | Disclaimer

   EN    FR    IT 

 










Legend :    VFR   Marginal VFR   IFR   Intensive IFR   Very Intensive IFR
Visi :
Ceiling :
>= 8 km
>= 3000ft
5 to 8 km
1000 to 3000 ft
1500m to 5 km
500 to 1000 ft
800 to 1500m
200 to 500 ft
< 800m
< 200 ft
Symbols :   Thunderstorms  Fog  Heavy snow  Heavy precipitations  Wind > 20 kt
SIGMETs :     Misc.  Thunderstorms  Icing  Turbulence  Mountain Waves  Volcanic Ashes







- Airport Elevation : 17 ft
- IATA code : CPH


EKCH - København - Kastrup (Copenhagen)

CURRENT METAR :
  • 151950Z AUTO 27018KT 9999 FEW043/// BKN050/// 13/06 Q1012 TEMPO 28017G28KT

EXPIRED METARs :
  • 151920Z AUTO 27016KT 9999 SCT033/// BKN053/// 13/07 Q1013 TEMPO 28017G28KT
  • 151850Z AUTO 27015KT 9999 BKN039/// 14/07 Q1013 TEMPO 28017G28KT
  • 151820Z AUTO 27016KT 9999 BKN048/// 14/07 Q1013 TEMPO 28017G28KT
  • 151750Z AUTO 27016KT 9999 BKN047/// 14/07 Q1013 TEMPO 28017G28KT
  • 151720Z AUTO 27017KT 9999 FEW040/// 14/06 Q1012 TEMPO 28017G28KT

TAF TAF EKCH
Valid from the 15 at 18:00 until the 16 at 18:00 UTC


151716Z 1518/1618 28017KT 9999 SCT030
TEMPO 1518/1524 28017G28KT
TEMPO 1600/1613 28018G32KT
TEMPO 1613/1618 29015G28KT
No reported NOTAMs for that airfield.



MET'MAP, your aeronautical weather chart ! - Copyright ORBIFLY December 2007 - Disclaimer

ORBIFLY MET'MAP TEAM :

Programming & Development : Alexandra Zaïnal
Concept & Development : Baudouin d'Aumeries
Co-Development & Prog : Marc-Olivier Méhu
Technical & hardware support : Manuel Goepfert

Contact : metmap@orbifly.com




SOURCES & CREDITS :

   NOAA